sensor_id;sensor_type;location;lat;lon;timestamp;P1;durP1;ratioP1;P2;durP2;ratioP2
58242;SDS011;50118;53.232;8.252;2023-02-16T00:01:55;88.50;;;44.00;;
58242;SDS011;50118;53.232;8.252;2023-02-16T00:04:22;88.75;;;44.53;;
58242;SDS011;50118;53.232;8.252;2023-02-16T00:06:50;91.22;;;44.53;;
58242;SDS011;50118;53.232;8.252;2023-02-16T00:09:16;93.40;;;41.90;;
58242;SDS011;50118;53.232;8.252;2023-02-16T00:11:43;83.53;;;40.38;;
58242;SDS011;50118;53.232;8.252;2023-02-16T00:14:27;88.15;;;41.80;;
58242;SDS011;50118;53.232;8.252;2023-02-16T00:16:54;78.93;;;38.80;;
58242;SDS011;50118;53.232;8.252;2023-02-16T00:21:51;77.05;;;35.47;;
58242;SDS011;50118;53.232;8.252;2023-02-16T00:24:19;72.05;;;36.45;;
58242;SDS011;50118;53.232;8.252;2023-02-16T00:26:45;76.13;;;36.47;;
58242;SDS011;50118;53.232;8.252;2023-02-16T00:31:53;72.05;;;36.03;;
58242;SDS011;50118;53.232;8.252;2023-02-16T00:34:30;70.03;;;35.40;;
58242;SDS011;50118;53.232;8.252;2023-02-16T00:37:05;71.32;;;35.33;;
58242;SDS011;50118;53.232;8.252;2023-02-16T00:39:32;71.32;;;34.25;;
58242;SDS011;50118;53.232;8.252;2023-02-16T00:42:05;71.60;;;34.92;;
58242;SDS011;50118;53.232;8.252;2023-02-16T00:44:39;70.25;;;35.28;;
58242;SDS011;50118;53.232;8.252;2023-02-16T00:47:16;74.90;;;35.05;;
58242;SDS011;50118;53.232;8.252;2023-02-16T00:49:48;68.55;;;33.97;;
58242;SDS011;50118;53.232;8.252;2023-02-16T00:54:44;71.15;;;33.78;;
58242;SDS011;50118;53.232;8.252;2023-02-16T00:57:09;68.00;;;34.35;;
58242;SDS011;50118;53.232;8.252;2023-02-16T01:02:07;69.70;;;36.45;;
58242;SDS011;50118;53.232;8.252;2023-02-16T01:04:32;65.50;;;34.90;;
58242;SDS011;50118;53.232;8.252;2023-02-16T01:06:58;64.20;;;32.55;;
58242;SDS011;50118;53.232;8.252;2023-02-16T01:09:42;65.20;;;34.78;;
58242;SDS011;50118;53.232;8.252;2023-02-16T01:12:26;66.00;;;34.08;;
58242;SDS011;50118;53.232;8.252;2023-02-16T01:14:52;70.63;;;33.47;;
58242;SDS011;50118;53.232;8.252;2023-02-16T01:17:19;68.78;;;33.88;;
58242;SDS011;50118;53.232;8.252;2023-02-16T01:19:44;59.13;;;30.55;;
58242;SDS011;50118;53.232;8.252;2023-02-16T01:22:10;63.85;;;32.50;;
58242;SDS011;50118;53.232;8.252;2023-02-16T01:24:35;65.40;;;31.70;;
58242;SDS011;50118;53.232;8.252;2023-02-16T01:27:00;66.25;;;32.33;;
58242;SDS011;50118;53.232;8.252;2023-02-16T01:29:26;65.50;;;33.35;;
58242;SDS011;50118;53.232;8.252;2023-02-16T01:31:51;66.55;;;32.20;;
58242;SDS011;50118;53.232;8.252;2023-02-16T01:34:17;65.45;;;34.22;;
58242;SDS011;50118;53.232;8.252;2023-02-16T01:36:43;62.28;;;32.70;;
58242;SDS011;50118;53.232;8.252;2023-02-16T01:39:11;63.15;;;32.05;;
58242;SDS011;50118;53.232;8.252;2023-02-16T01:44:37;63.28;;;32.17;;
58242;SDS011;50118;53.232;8.252;2023-02-16T01:47:11;60.33;;;32.00;;
58242;SDS011;50118;53.232;8.252;2023-02-16T01:55:46;61.22;;;31.23;;
58242;SDS011;50118;53.232;8.252;2023-02-16T01:58:21;60.67;;;31.20;;
58242;SDS011;50118;53.232;8.252;2023-02-16T02:07:44;64.72;;;33.95;;
58242;SDS011;50118;53.232;8.252;2023-02-16T02:10:34;63.30;;;34.30;;
58242;SDS011;50118;53.232;8.252;2023-02-16T02:13:06;62.72;;;32.40;;
58242;SDS011;50118;53.232;8.252;2023-02-16T02:15:41;66.72;;;32.60;;
58242;SDS011;50118;53.232;8.252;2023-02-16T02:18:06;65.25;;;33.58;;
58242;SDS011;50118;53.232;8.252;2023-02-16T02:32:25;66.05;;;32.95;;
58242;SDS011;50118;53.232;8.252;2023-02-16T02:41:07;66.07;;;34.38;;
58242;SDS011;50118;53.232;8.252;2023-02-16T02:43:47;73.95;;;36.65;;
58242;SDS011;50118;53.232;8.252;2023-02-16T02:46:20;62.28;;;32.28;;
58242;SDS011;50118;53.232;8.252;2023-02-16T02:48:50;66.05;;;33.42;;
58242;SDS011;50118;53.232;8.252;2023-02-16T02:51:15;62.58;;;32.80;;
58242;SDS011;50118;53.232;8.252;2023-02-16T02:53:56;67.20;;;32.72;;
58242;SDS011;50118;53.232;8.252;2023-02-16T03:00:26;68.55;;;35.30;;
58242;SDS011;50118;53.232;8.252;2023-02-16T03:05:39;69.40;;;37.95;;
58242;SDS011;50118;53.232;8.252;2023-02-16T03:08:08;71.03;;;36.78;;
58242;SDS011;50118;53.232;8.252;2023-02-16T03:10:41;73.10;;;37.10;;
58242;SDS011;50118;53.232;8.252;2023-02-16T03:13:32;79.93;;;37.88;;
58242;SDS011;50118;53.232;8.252;2023-02-16T03:16:06;69.70;;;36.28;;
58242;SDS011;50118;53.232;8.252;2023-02-16T03:18:36;66.55;;;34.67;;
58242;SDS011;50118;53.232;8.252;2023-02-16T03:21:22;68.68;;;35.33;;
58242;SDS011;50118;53.232;8.252;2023-02-16T03:24:08;65.80;;;34.65;;
58242;SDS011;50118;53.232;8.252;2023-02-16T03:26:57;71.20;;;37.15;;
58242;SDS011;50118;53.232;8.252;2023-02-16T03:32:45;70.85;;;34.92;;
58242;SDS011;50118;53.232;8.252;2023-02-16T03:35:11;80.78;;;39.30;;
58242;SDS011;50118;53.232;8.252;2023-02-16T03:37:38;74.18;;;37.85;;
58242;SDS011;50118;53.232;8.252;2023-02-16T03:40:05;72.22;;;34.95;;
58242;SDS011;50118;53.232;8.252;2023-02-16T03:42:52;72.45;;;34.95;;
58242;SDS011;50118;53.232;8.252;2023-02-16T03:45:20;67.60;;;33.85;;
58242;SDS011;50118;53.232;8.252;2023-02-16T03:47:46;68.22;;;34.08;;
58242;SDS011;50118;53.232;8.252;2023-02-16T03:50:12;70.82;;;34.40;;
58242;SDS011;50118;53.232;8.252;2023-02-16T03:52:37;73.03;;;37.85;;
58242;SDS011;50118;53.232;8.252;2023-02-16T03:55:03;73.90;;;37.05;;
58242;SDS011;50118;53.232;8.252;2023-02-16T03:57:28;79.45;;;39.95;;
58242;SDS011;50118;53.232;8.252;2023-02-16T03:59:54;76.05;;;39.25;;
58242;SDS011;50118;53.232;8.252;2023-02-16T04:02:19;76.65;;;39.83;;
58242;SDS011;50118;53.232;8.252;2023-02-16T04:04:45;78.22;;;39.30;;
58242;SDS011;50118;53.232;8.252;2023-02-16T04:07:11;74.53;;;39.70;;
58242;SDS011;50118;53.232;8.252;2023-02-16T04:09:36;77.10;;;38.42;;
58242;SDS011;50118;53.232;8.252;2023-02-16T04:12:02;76.18;;;39.03;;
58242;SDS011;50118;53.232;8.252;2023-02-16T04:14:45;83.00;;;40.47;;
58242;SDS011;50118;53.232;8.252;2023-02-16T04:17:11;77.05;;;39.15;;
58242;SDS011;50118;53.232;8.252;2023-02-16T04:19:36;80.68;;;41.25;;
58242;SDS011;50118;53.232;8.252;2023-02-16T04:22:02;71.90;;;37.55;;
58242;SDS011;50118;53.232;8.252;2023-02-16T04:24:27;75.57;;;37.85;;
58242;SDS011;50118;53.232;8.252;2023-02-16T04:26:52;74.45;;;38.38;;
58242;SDS011;50118;53.232;8.252;2023-02-16T04:29:18;79.28;;;40.22;;
58242;SDS011;50118;53.232;8.252;2023-02-16T04:31:43;70.90;;;39.22;;
58242;SDS011;50118;53.232;8.252;2023-02-16T04:34:09;72.75;;;35.85;;
58242;SDS011;50118;53.232;8.252;2023-02-16T04:36:34;69.65;;;36.85;;
58242;SDS011;50118;53.232;8.252;2023-02-16T04:39:00;71.05;;;36.60;;
58242;SDS011;50118;53.232;8.252;2023-02-16T04:41:25;73.35;;;35.53;;
58242;SDS011;50118;53.232;8.252;2023-02-16T04:43:51;66.63;;;35.20;;
58242;SDS011;50118;53.232;8.252;2023-02-16T04:46:16;72.30;;;37.15;;
58242;SDS011;50118;53.232;8.252;2023-02-16T04:48:43;68.40;;;36.58;;
58242;SDS011;50118;53.232;8.252;2023-02-16T04:51:09;76.05;;;37.42;;
58242;SDS011;50118;53.232;8.252;2023-02-16T04:53:35;72.45;;;37.67;;
58242;SDS011;50118;53.232;8.252;2023-02-16T04:56:00;71.30;;;35.78;;
58242;SDS011;50118;53.232;8.252;2023-02-16T04:58:26;65.65;;;35.45;;
58242;SDS011;50118;53.232;8.252;2023-02-16T05:00:51;74.78;;;37.38;;
58242;SDS011;50118;53.232;8.252;2023-02-16T05:03:17;72.38;;;37.10;;
58242;SDS011;50118;53.232;8.252;2023-02-16T05:05:43;69.05;;;35.50;;
58242;SDS011;50118;53.232;8.252;2023-02-16T05:08:08;76.65;;;38.33;;
58242;SDS011;50118;53.232;8.252;2023-02-16T05:10:33;66.88;;;35.08;;
58242;SDS011;50118;53.232;8.252;2023-02-16T05:12:59;67.40;;;34.47;;
58242;SDS011;50118;53.232;8.252;2023-02-16T05:15:43;72.35;;;37.92;;
58242;SDS011;50118;53.232;8.252;2023-02-16T05:18:09;69.35;;;36.40;;
58242;SDS011;50118;53.232;8.252;2023-02-16T05:20:34;77.22;;;35.42;;
58242;SDS011;50118;53.232;8.252;2023-02-16T05:23:18;72.80;;;37.28;;
58242;SDS011;50118;53.232;8.252;2023-02-16T05:25:44;68.75;;;36.08;;
58242;SDS011;50118;53.232;8.252;2023-02-16T05:28:09;72.60;;;37.25;;
58242;SDS011;50118;53.232;8.252;2023-02-16T05:30:35;71.32;;;35.78;;
58242;SDS011;50118;53.232;8.252;2023-02-16T05:33:00;69.93;;;36.83;;
58242;SDS011;50118;53.232;8.252;2023-02-16T05:35:25;67.90;;;36.42;;
58242;SDS011;50118;53.232;8.252;2023-02-16T05:37:51;70.97;;;36.47;;
58242;SDS011;50118;53.232;8.252;2023-02-16T05:40:16;69.80;;;36.75;;
58242;SDS011;50118;53.232;8.252;2023-02-16T05:42:42;72.38;;;36.15;;
58242;SDS011;50118;53.232;8.252;2023-02-16T05:45:07;67.25;;;34.50;;
58242;SDS011;50118;53.232;8.252;2023-02-16T05:47:33;70.25;;;35.17;;
58242;SDS011;50118;53.232;8.252;2023-02-16T05:49:59;70.78;;;37.70;;
58242;SDS011;50118;53.232;8.252;2023-02-16T05:52:24;72.88;;;38.05;;
58242;SDS011;50118;53.232;8.252;2023-02-16T05:54:50;74.68;;;35.60;;
58242;SDS011;50118;53.232;8.252;2023-02-16T05:57:15;69.82;;;36.72;;
58242;SDS011;50118;53.232;8.252;2023-02-16T05:59:41;72.22;;;35.22;;
58242;SDS011;50118;53.232;8.252;2023-02-16T06:02:06;71.30;;;36.20;;
58242;SDS011;50118;53.232;8.252;2023-02-16T06:04:33;69.18;;;36.03;;
58242;SDS011;50118;53.232;8.252;2023-02-16T06:06:59;68.35;;;36.28;;
58242;SDS011;50118;53.232;8.252;2023-02-16T06:09:25;73.45;;;35.90;;
58242;SDS011;50118;53.232;8.252;2023-02-16T06:11:50;68.82;;;36.83;;
58242;SDS011;50118;53.232;8.252;2023-02-16T06:14:17;71.97;;;38.33;;
58242;SDS011;50118;53.232;8.252;2023-02-16T06:16:44;70.65;;;34.35;;
58242;SDS011;50118;53.232;8.252;2023-02-16T06:19:11;66.20;;;37.70;;
58242;SDS011;50118;53.232;8.252;2023-02-16T06:21:38;65.53;;;35.15;;
58242;SDS011;50118;53.232;8.252;2023-02-16T06:24:04;65.50;;;35.30;;
58242;SDS011;50118;53.232;8.252;2023-02-16T06:26:31;63.95;;;33.30;;
58242;SDS011;50118;53.232;8.252;2023-02-16T06:28:57;67.75;;;35.83;;
58242;SDS011;50118;53.232;8.252;2023-02-16T06:31:23;67.57;;;37.08;;
58242;SDS011;50118;53.232;8.252;2023-02-16T06:33:49;69.43;;;36.28;;
58242;SDS011;50118;53.232;8.252;2023-02-16T06:36:15;68.70;;;36.53;;
58242;SDS011;50118;53.232;8.252;2023-02-16T06:38:41;65.72;;;35.15;;
58242;SDS011;50118;53.232;8.252;2023-02-16T06:41:06;67.47;;;36.25;;
58242;SDS011;50118;53.232;8.252;2023-02-16T06:43:32;68.13;;;34.03;;
58242;SDS011;50118;53.232;8.252;2023-02-16T06:45:57;66.05;;;35.80;;
58242;SDS011;50118;53.232;8.252;2023-02-16T06:48:23;63.50;;;32.85;;
58242;SDS011;50118;53.232;8.252;2023-02-16T06:50:49;65.40;;;34.40;;
58242;SDS011;50118;53.232;8.252;2023-02-16T06:53:14;64.07;;;33.30;;
58242;SDS011;50118;53.232;8.252;2023-02-16T06:55:40;62.13;;;33.38;;
58242;SDS011;50118;53.232;8.252;2023-02-16T06:58:05;61.70;;;32.00;;
58242;SDS011;50118;53.232;8.252;2023-02-16T07:00:32;63.10;;;34.20;;
58242;SDS011;50118;53.232;8.252;2023-02-16T07:02:58;60.92;;;32.97;;
58242;SDS011;50118;53.232;8.252;2023-02-16T07:05:23;65.18;;;34.25;;
58242;SDS011;50118;53.232;8.252;2023-02-16T07:07:49;67.63;;;34.50;;
58242;SDS011;50118;53.232;8.252;2023-02-16T07:10:14;61.88;;;32.80;;
58242;SDS011;50118;53.232;8.252;2023-02-16T07:12:40;61.58;;;33.95;;
58242;SDS011;50118;53.232;8.252;2023-02-16T07:15:06;64.38;;;32.85;;
58242;SDS011;50118;53.232;8.252;2023-02-16T07:17:32;67.15;;;33.83;;
58242;SDS011;50118;53.232;8.252;2023-02-16T07:19:57;61.70;;;32.72;;
58242;SDS011;50118;53.232;8.252;2023-02-16T07:22:22;62.97;;;33.33;;
58242;SDS011;50118;53.232;8.252;2023-02-16T07:24:48;63.88;;;34.25;;
58242;SDS011;50118;53.232;8.252;2023-02-16T07:27:14;60.33;;;33.22;;
58242;SDS011;50118;53.232;8.252;2023-02-16T07:29:40;57.83;;;31.85;;
58242;SDS011;50118;53.232;8.252;2023-02-16T07:32:05;62.30;;;33.00;;
58242;SDS011;50118;53.232;8.252;2023-02-16T07:34:30;59.03;;;33.70;;
58242;SDS011;50118;53.232;8.252;2023-02-16T07:36:56;64.35;;;33.80;;
58242;SDS011;50118;53.232;8.252;2023-02-16T07:39:22;58.67;;;31.25;;
58242;SDS011;50118;53.232;8.252;2023-02-16T07:41:48;57.85;;;31.85;;
58242;SDS011;50118;53.232;8.252;2023-02-16T07:44:13;57.10;;;32.75;;
58242;SDS011;50118;53.232;8.252;2023-02-16T07:46:38;59.65;;;31.63;;
58242;SDS011;50118;53.232;8.252;2023-02-16T07:49:04;59.75;;;32.17;;
58242;SDS011;50118;53.232;8.252;2023-02-16T07:51:29;61.33;;;32.90;;
58242;SDS011;50118;53.232;8.252;2023-02-16T07:53:56;60.53;;;34.03;;
58242;SDS011;50118;53.232;8.252;2023-02-16T07:56:24;57.70;;;31.25;;
58242;SDS011;50118;53.232;8.252;2023-02-16T07:58:52;59.20;;;33.15;;
58242;SDS011;50118;53.232;8.252;2023-02-16T08:01:21;55.60;;;31.02;;
58242;SDS011;50118;53.232;8.252;2023-02-16T08:03:47;58.60;;;32.05;;
58242;SDS011;50118;53.232;8.252;2023-02-16T08:06:13;56.30;;;31.10;;
58242;SDS011;50118;53.232;8.252;2023-02-16T08:08:39;56.25;;;31.05;;
58242;SDS011;50118;53.232;8.252;2023-02-16T08:11:12;59.58;;;32.47;;
58242;SDS011;50118;53.232;8.252;2023-02-16T08:13:40;57.90;;;31.73;;
58242;SDS011;50118;53.232;8.252;2023-02-16T08:16:11;56.13;;;31.38;;
58242;SDS011;50118;53.232;8.252;2023-02-16T08:18:38;59.08;;;32.55;;
58242;SDS011;50118;53.232;8.252;2023-02-16T08:21:27;57.03;;;31.17;;
58242;SDS011;50118;53.232;8.252;2023-02-16T08:23:56;53.75;;;30.80;;
58242;SDS011;50118;53.232;8.252;2023-02-16T08:26:24;59.35;;;30.75;;
58242;SDS011;50118;53.232;8.252;2023-02-16T08:28:51;52.15;;;30.55;;
58242;SDS011;50118;53.232;8.252;2023-02-16T08:33:44;57.33;;;31.67;;
58242;SDS011;50118;53.232;8.252;2023-02-16T08:36:16;58.05;;;31.33;;
58242;SDS011;50118;53.232;8.252;2023-02-16T08:38:42;53.28;;;29.60;;
58242;SDS011;50118;53.232;8.252;2023-02-16T08:41:08;51.05;;;28.58;;
58242;SDS011;50118;53.232;8.252;2023-02-16T08:43:34;54.67;;;30.73;;
58242;SDS011;50118;53.232;8.252;2023-02-16T08:45:59;52.55;;;30.08;;
58242;SDS011;50118;53.232;8.252;2023-02-16T08:48:25;54.65;;;28.98;;
58242;SDS011;50118;53.232;8.252;2023-02-16T08:50:52;53.65;;;30.45;;
58242;SDS011;50118;53.232;8.252;2023-02-16T08:53:21;56.38;;;29.40;;
58242;SDS011;50118;53.232;8.252;2023-02-16T08:55:55;49.08;;;28.40;;
58242;SDS011;50118;53.232;8.252;2023-02-16T08:58:22;51.92;;;29.33;;
58242;SDS011;50118;53.232;8.252;2023-02-16T09:00:48;50.58;;;30.15;;
58242;SDS011;50118;53.232;8.252;2023-02-16T09:03:17;53.55;;;30.20;;
58242;SDS011;50118;53.232;8.252;2023-02-16T09:05:46;54.50;;;31.42;;
58242;SDS011;50118;53.232;8.252;2023-02-16T09:08:12;50.95;;;30.15;;
58242;SDS011;50118;53.232;8.252;2023-02-16T09:10:41;48.70;;;28.35;;
58242;SDS011;50118;53.232;8.252;2023-02-16T09:13:07;51.97;;;30.38;;
58242;SDS011;50118;53.232;8.252;2023-02-16T09:15:42;52.83;;;29.48;;
58242;SDS011;50118;53.232;8.252;2023-02-16T09:18:08;48.33;;;28.55;;
58242;SDS011;50118;53.232;8.252;2023-02-16T09:20:36;47.63;;;27.50;;
58242;SDS011;50118;53.232;8.252;2023-02-16T09:23:07;48.75;;;28.50;;
58242;SDS011;50118;53.232;8.252;2023-02-16T09:25:35;50.65;;;29.13;;
58242;SDS011;50118;53.232;8.252;2023-02-16T09:28:03;53.13;;;29.02;;
58242;SDS011;50118;53.232;8.252;2023-02-16T09:30:29;46.55;;;26.52;;
58242;SDS011;50118;53.232;8.252;2023-02-16T09:32:56;50.78;;;28.30;;
58242;SDS011;50118;53.232;8.252;2023-02-16T09:35:22;50.90;;;28.85;;
58242;SDS011;50118;53.232;8.252;2023-02-16T09:37:48;48.90;;;28.17;;
58242;SDS011;50118;53.232;8.252;2023-02-16T09:40:14;50.72;;;28.10;;
58242;SDS011;50118;53.232;8.252;2023-02-16T09:45:30;57.22;;;30.10;;
58242;SDS011;50118;53.232;8.252;2023-02-16T09:48:02;50.95;;;28.13;;
58242;SDS011;50118;53.232;8.252;2023-02-16T09:50:28;50.70;;;27.55;;
58242;SDS011;50118;53.232;8.252;2023-02-16T09:52:58;51.88;;;27.70;;
58242;SDS011;50118;53.232;8.252;2023-02-16T09:55:31;52.08;;;27.23;;
58242;SDS011;50118;53.232;8.252;2023-02-16T10:00:55;52.20;;;27.65;;
58242;SDS011;50118;53.232;8.252;2023-02-16T10:08:39;53.50;;;27.63;;
58242;SDS011;50118;53.232;8.252;2023-02-16T10:13:53;54.67;;;28.98;;
58242;SDS011;50118;53.232;8.252;2023-02-16T10:16:26;50.58;;;27.80;;
58242;SDS011;50118;53.232;8.252;2023-02-16T10:18:55;54.75;;;28.23;;
58242;SDS011;50118;53.232;8.252;2023-02-16T10:21:26;55.17;;;29.00;;
58242;SDS011;50118;53.232;8.252;2023-02-16T10:23:55;52.50;;;29.05;;
58242;SDS011;50118;53.232;8.252;2023-02-16T10:26:38;56.53;;;30.15;;
58242;SDS011;50118;53.232;8.252;2023-02-16T10:29:18;52.00;;;27.42;;
58242;SDS011;50118;53.232;8.252;2023-02-16T10:35:10;52.38;;;29.95;;
58242;SDS011;50118;53.232;8.252;2023-02-16T10:40:25;52.72;;;29.90;;
58242;SDS011;50118;53.232;8.252;2023-02-16T10:43:11;50.65;;;28.67;;
58242;SDS011;50118;53.232;8.252;2023-02-16T10:48:11;55.50;;;29.70;;
58242;SDS011;50118;53.232;8.252;2023-02-16T10:50:41;59.13;;;31.17;;
58242;SDS011;50118;53.232;8.252;2023-02-16T10:53:48;53.88;;;28.30;;
58242;SDS011;50118;53.232;8.252;2023-02-16T10:58:56;57.58;;;29.13;;
58242;SDS011;50118;53.232;8.252;2023-02-16T11:01:30;58.38;;;30.67;;
58242;SDS011;50118;53.232;8.252;2023-02-16T11:04:03;59.08;;;30.33;;
58242;SDS011;50118;53.232;8.252;2023-02-16T11:06:29;57.53;;;30.50;;
58242;SDS011;50118;53.232;8.252;2023-02-16T11:08:56;59.85;;;30.05;;
58242;SDS011;50118;53.232;8.252;2023-02-16T11:11:25;58.95;;;31.33;;
58242;SDS011;50118;53.232;8.252;2023-02-16T11:13:56;60.17;;;31.45;;
58242;SDS011;50118;53.232;8.252;2023-02-16T11:16:25;60.10;;;30.52;;
58242;SDS011;50118;53.232;8.252;2023-02-16T11:24:23;58.85;;;31.95;;
58242;SDS011;50118;53.232;8.252;2023-02-16T11:27:09;65.70;;;32.10;;
58242;SDS011;50118;53.232;8.252;2023-02-16T11:29:41;59.33;;;31.10;;
58242;SDS011;50118;53.232;8.252;2023-02-16T11:32:07;67.78;;;33.70;;
58242;SDS011;50118;53.232;8.252;2023-02-16T11:34:35;67.43;;;35.15;;
58242;SDS011;50118;53.232;8.252;2023-02-16T11:37:06;69.72;;;35.70;;
58242;SDS011;50118;53.232;8.252;2023-02-16T11:39:54;64.00;;;34.80;;
58242;SDS011;50118;53.232;8.252;2023-02-16T11:44:52;65.22;;;35.03;;
58242;SDS011;50118;53.232;8.252;2023-02-16T11:49:46;67.13;;;33.70;;
58242;SDS011;50118;53.232;8.252;2023-02-16T11:52:18;65.65;;;32.92;;
58242;SDS011;50118;53.232;8.252;2023-02-16T11:54:50;65.90;;;33.72;;
58242;SDS011;50118;53.232;8.252;2023-02-16T11:59:52;65.50;;;33.38;;
58242;SDS011;50118;53.232;8.252;2023-02-16T12:07:39;67.38;;;36.35;;
58242;SDS011;50118;53.232;8.252;2023-02-16T12:12:56;68.85;;;36.85;;
58242;SDS011;50118;53.232;8.252;2023-02-16T12:20:49;66.93;;;33.00;;
58242;SDS011;50118;53.232;8.252;2023-02-16T12:26:07;66.53;;;34.85;;
58242;SDS011;50118;53.232;8.252;2023-02-16T12:40:45;76.00;;;38.58;;
58242;SDS011;50118;53.232;8.252;2023-02-16T12:49:05;78.03;;;39.38;;
58242;SDS011;50118;53.232;8.252;2023-02-16T12:56:58;77.68;;;37.75;;
58242;SDS011;50118;53.232;8.252;2023-02-16T13:01:57;69.78;;;36.85;;
58242;SDS011;50118;53.232;8.252;2023-02-16T13:04:33;65.32;;;33.92;;
58242;SDS011;50118;53.232;8.252;2023-02-16T13:07:06;72.22;;;36.15;;
58242;SDS011;50118;53.232;8.252;2023-02-16T13:18:15;67.80;;;38.30;;
58242;SDS011;50118;53.232;8.252;2023-02-16T13:20:48;69.03;;;37.58;;
58242;SDS011;50118;53.232;8.252;2023-02-16T13:23:29;69.97;;;35.30;;
58242;SDS011;50118;53.232;8.252;2023-02-16T13:26:30;73.32;;;37.72;;
58242;SDS011;50118;53.232;8.252;2023-02-16T13:40:26;74.32;;;37.70;;
58242;SDS011;50118;53.232;8.252;2023-02-16T13:46:06;77.82;;;39.08;;
58242;SDS011;50118;53.232;8.252;2023-02-16T13:48:47;75.03;;;38.45;;
58242;SDS011;50118;53.232;8.252;2023-02-16T13:51:19;77.32;;;37.85;;
58242;SDS011;50118;53.232;8.252;2023-02-16T13:53:51;75.60;;;38.40;;
58242;SDS011;50118;53.232;8.252;2023-02-16T13:58:58;77.68;;;40.08;;
58242;SDS011;50118;53.232;8.252;2023-02-16T14:01:47;74.50;;;38.25;;
58242;SDS011;50118;53.232;8.252;2023-02-16T14:06:46;78.17;;;39.20;;
58242;SDS011;50118;53.232;8.252;2023-02-16T14:14:28;81.15;;;40.60;;
58242;SDS011;50118;53.232;8.252;2023-02-16T14:17:13;79.07;;;39.28;;
58242;SDS011;50118;53.232;8.252;2023-02-16T14:25:03;83.22;;;40.38;;
58242;SDS011;50118;53.232;8.252;2023-02-16T14:30:17;77.93;;;37.60;;
58242;SDS011;50118;53.232;8.252;2023-02-16T14:35:46;74.40;;;40.17;;
58242;SDS011;50118;53.232;8.252;2023-02-16T14:41:05;80.38;;;39.85;;
58242;SDS011;50118;53.232;8.252;2023-02-16T14:59:58;74.00;;;35.22;;
58242;SDS011;50118;53.232;8.252;2023-02-16T15:02:37;76.53;;;36.50;;
58242;SDS011;50118;53.232;8.252;2023-02-16T15:07:48;69.30;;;34.53;;
58242;SDS011;50118;53.232;8.252;2023-02-16T15:10:18;69.63;;;33.88;;
58242;SDS011;50118;53.232;8.252;2023-02-16T15:12:50;65.20;;;33.88;;
58242;SDS011;50118;53.232;8.252;2023-02-16T15:15:18;66.82;;;33.03;;
58242;SDS011;50118;53.232;8.252;2023-02-16T15:17:49;71.25;;;35.03;;
58242;SDS011;50118;53.232;8.252;2023-02-16T15:20:23;62.60;;;33.47;;
58242;SDS011;50118;53.232;8.252;2023-02-16T15:22:58;72.78;;;35.55;;
58242;SDS011;50118;53.232;8.252;2023-02-16T15:25:34;68.55;;;34.88;;
58242;SDS011;50118;53.232;8.252;2023-02-16T15:30:38;69.13;;;32.42;;
58242;SDS011;50118;53.232;8.252;2023-02-16T15:33:09;68.10;;;32.92;;
58242;SDS011;50118;53.232;8.252;2023-02-16T15:35:53;68.55;;;33.03;;
58242;SDS011;50118;53.232;8.252;2023-02-16T15:38:24;63.55;;;31.40;;
58242;SDS011;50118;53.232;8.252;2023-02-16T15:40:52;62.95;;;32.95;;
58242;SDS011;50118;53.232;8.252;2023-02-16T15:46:24;65.00;;;31.58;;
58242;SDS011;50118;53.232;8.252;2023-02-16T15:48:54;74.70;;;36.45;;
58242;SDS011;50118;53.232;8.252;2023-02-16T15:51:27;62.78;;;32.45;;
58242;SDS011;50118;53.232;8.252;2023-02-16T15:53:59;81.20;;;43.28;;
58242;SDS011;50118;53.232;8.252;2023-02-16T15:59:02;67.00;;;34.05;;
58242;SDS011;50118;53.232;8.252;2023-02-16T16:01:37;72.53;;;35.58;;
58242;SDS011;50118;53.232;8.252;2023-02-16T16:04:05;60.47;;;33.22;;
58242;SDS011;50118;53.232;8.252;2023-02-16T16:06:40;69.45;;;33.58;;
58242;SDS011;50118;53.232;8.252;2023-02-16T16:09:09;72.30;;;34.45;;
58242;SDS011;50118;53.232;8.252;2023-02-16T16:11:45;72.40;;;35.92;;
58242;SDS011;50118;53.232;8.252;2023-02-16T16:14:11;70.18;;;34.63;;
58242;SDS011;50118;53.232;8.252;2023-02-16T16:16:38;66.80;;;33.70;;
58242;SDS011;50118;53.232;8.252;2023-02-16T16:19:05;63.60;;;31.25;;
58242;SDS011;50118;53.232;8.252;2023-02-16T16:21:44;69.18;;;34.50;;
58242;SDS011;50118;53.232;8.252;2023-02-16T16:24:34;64.38;;;33.17;;
58242;SDS011;50118;53.232;8.252;2023-02-16T16:27:07;69.68;;;34.90;;
58242;SDS011;50118;53.232;8.252;2023-02-16T16:34:41;72.97;;;37.03;;
58242;SDS011;50118;53.232;8.252;2023-02-16T16:48:05;67.93;;;34.95;;
58242;SDS011;50118;53.232;8.252;2023-02-16T16:50:43;71.05;;;35.47;;
58242;SDS011;50118;53.232;8.252;2023-02-16T16:56:07;69.07;;;35.47;;
58242;SDS011;50118;53.232;8.252;2023-02-16T16:58:34;67.63;;;34.75;;
58242;SDS011;50118;53.232;8.252;2023-02-16T17:00:59;65.53;;;34.00;;
58242;SDS011;50118;53.232;8.252;2023-02-16T17:03:24;73.65;;;35.47;;
58242;SDS011;50118;53.232;8.252;2023-02-16T17:05:50;70.53;;;32.38;;
58242;SDS011;50118;53.232;8.252;2023-02-16T17:08:16;65.57;;;32.28;;
58242;SDS011;50118;53.232;8.252;2023-02-16T17:10:41;66.65;;;35.03;;
58242;SDS011;50118;53.232;8.252;2023-02-16T17:13:07;62.60;;;32.85;;
58242;SDS011;50118;53.232;8.252;2023-02-16T17:15:59;68.60;;;32.92;;
58242;SDS011;50118;53.232;8.252;2023-02-16T17:18:28;70.93;;;36.00;;
58242;SDS011;50118;53.232;8.252;2023-02-16T17:20:53;68.22;;;35.95;;
58242;SDS011;50118;53.232;8.252;2023-02-16T17:23:20;71.60;;;33.88;;
58242;SDS011;50118;53.232;8.252;2023-02-16T17:25:47;66.05;;;34.45;;
58242;SDS011;50118;53.232;8.252;2023-02-16T17:28:14;71.10;;;36.10;;
58242;SDS011;50118;53.232;8.252;2023-02-16T17:30:41;71.80;;;37.55;;
58242;SDS011;50118;53.232;8.252;2023-02-16T17:33:07;74.03;;;37.65;;
58242;SDS011;50118;53.232;8.252;2023-02-16T17:35:34;71.28;;;33.75;;
58242;SDS011;50118;53.232;8.252;2023-02-16T17:40:34;75.38;;;36.72;;
58242;SDS011;50118;53.232;8.252;2023-02-16T17:42:59;74.30;;;37.30;;
58242;SDS011;50118;53.232;8.252;2023-02-16T17:45:25;71.80;;;35.75;;
58242;SDS011;50118;53.232;8.252;2023-02-16T17:47:50;70.13;;;34.45;;
58242;SDS011;50118;53.232;8.252;2023-02-16T17:50:16;68.15;;;34.38;;
58242;SDS011;50118;53.232;8.252;2023-02-16T17:52:43;75.72;;;37.33;;
58242;SDS011;50118;53.232;8.252;2023-02-16T17:55:09;75.95;;;36.63;;
58242;SDS011;50118;53.232;8.252;2023-02-16T17:57:35;77.47;;;39.15;;
58242;SDS011;50118;53.232;8.252;2023-02-16T18:00:03;75.85;;;38.63;;
58242;SDS011;50118;53.232;8.252;2023-02-16T18:02:30;78.35;;;40.00;;
58242;SDS011;50118;53.232;8.252;2023-02-16T18:04:55;79.30;;;40.28;;
58242;SDS011;50118;53.232;8.252;2023-02-16T18:07:20;80.70;;;39.42;;
58242;SDS011;50118;53.232;8.252;2023-02-16T18:09:46;77.85;;;38.83;;
58242;SDS011;50118;53.232;8.252;2023-02-16T18:12:12;81.80;;;41.28;;
58242;SDS011;50118;53.232;8.252;2023-02-16T18:14:38;75.97;;;39.42;;
58242;SDS011;50118;53.232;8.252;2023-02-16T18:17:04;76.38;;;40.22;;
58242;SDS011;50118;53.232;8.252;2023-02-16T18:19:31;75.82;;;39.92;;
58242;SDS011;50118;53.232;8.252;2023-02-16T18:21:57;74.07;;;38.67;;
58242;SDS011;50118;53.232;8.252;2023-02-16T18:24:22;76.78;;;39.90;;
58242;SDS011;50118;53.232;8.252;2023-02-16T18:26:48;72.38;;;36.53;;